Time;durP1;ratioP1;P1;durP2;ratioP2;P2;SDS_P1;SDS_P2;PMS_P1;PMS_P2;Temp;Humidity;BMP_temperature;BMP_pressure;BME280_temperature;BME280_humidity;BME280_pressure;Samples;Min_cycle;Max_cycle;Signal;HPM_P1;HPM_P2
2022/04/21 00:02:09;;;;;;;12.18;6.13;;;7.10;99.90;;;;;;5083403;28;20040;-74
2022/04/21 00:04:35;;;;;;;12.32;6.30;;;7.10;99.90;;;;;;5067274;28;20567;-74
2022/04/21 00:07:00;;;;;;;11.75;6.45;;;7.10;99.90;;;;;;5075843;28;20028;-74
2022/04/21 00:09:26;;;;;;;12.07;6.40;;;7.10;99.90;;;;;;5083896;28;20126;-73
2022/04/21 00:11:51;;;;;;;9.43;5.85;;;7.10;99.90;;;;;;5081718;28;20058;-72
2022/04/21 00:14:17;;;;;;;9.93;6.25;;;7.10;99.90;;;;;;5083330;28;20558;-73
2022/04/21 00:16:42;;;;;;;10.85;6.10;;;7.10;99.90;;;;;;5083205;28;20153;-73
2022/04/21 00:19:08;;;;;;;11.60;6.15;;;7.10;99.90;;;;;;5080699;28;20036;-72
2022/04/21 00:24:17;;;;;;;11.80;6.38;;;7.00;99.90;;;;;;5083640;28;20497;-73
2022/04/21 00:26:43;;;;;;;10.07;6.72;;;6.90;99.90;;;;;;5084143;28;20032;-73
2022/04/21 00:29:08;;;;;;;12.65;6.88;;;6.90;99.90;;;;;;5083359;28;20052;-74
2022/04/21 00:31:34;;;;;;;14.65;7.25;;;6.90;99.90;;;;;;5082947;28;20047;-74
2022/04/21 00:33:59;;;;;;;11.15;6.47;;;6.90;99.90;;;;;;5084423;28;20051;-73
2022/04/21 00:36:25;;;;;;;13.30;7.00;;;6.90;99.90;;;;;;5082802;28;20051;-74
2022/04/21 00:38:50;;;;;;;11.10;6.38;;;6.80;99.90;;;;;;5085450;28;20077;-74
2022/04/21 00:41:16;;;;;;;11.65;6.80;;;6.80;99.90;;;;;;5091162;28;20063;-74
2022/04/21 00:43:41;;;;;;;12.10;7.43;;;6.80;99.90;;;;;;5089629;28;20399;-74
2022/04/21 00:46:15;;;;;;;13.73;7.25;;;6.80;99.90;;;;;;5091112;28;20040;-74
2022/04/21 00:48:40;;;;;;;14.25;7.03;;;6.70;99.90;;;;;;5089393;28;20396;-75
2022/04/21 00:51:06;;;;;;;12.98;7.38;;;6.70;99.90;;;;;;5087700;28;20042;-74
2022/04/21 00:53:31;;;;;;;13.65;7.15;;;6.70;99.90;;;;;;5088119;28;20042;-74
2022/04/21 00:55:58;;;;;;;13.80;7.13;;;6.70;99.90;;;;;;5091416;28;20486;-74
2022/04/21 00:58:24;;;;;;;13.38;7.22;;;6.60;99.90;;;;;;5087501;28;20075;-75
2022/04/21 01:00:50;;;;;;;10.52;6.85;;;6.60;99.90;;;;;;5090223;28;20553;-74
2022/04/21 01:03:15;;;;;;;14.88;7.22;;;6.60;99.90;;;;;;5090609;28;20043;-75
2022/04/21 01:05:41;;;;;;;12.63;7.53;;;6.60;99.90;;;;;;5090052;28;20028;-74
2022/04/21 01:08:08;;;;;;;11.65;7.25;;;6.50;99.90;;;;;;5090294;28;20035;-73
2022/04/21 01:10:38;;;;;;;11.23;6.82;;;6.50;99.90;;;;;;5087203;28;20039;-74
2022/04/21 01:13:06;;;;;;;12.43;6.90;;;6.50;99.90;;;;;;5091128;28;20064;-74
2022/04/21 01:15:32;;;;;;;13.05;7.80;;;6.40;99.90;;;;;;5090992;28;20060;-73
2022/04/21 01:17:58;;;;;;;11.95;7.38;;;6.30;99.90;;;;;;5090319;28;20044;-74
2022/04/21 01:20:25;;;;;;;12.95;7.72;;;6.30;99.90;;;;;;5086671;28;20497;-73
2022/04/21 01:22:52;;;;;;;14.85;7.53;;;6.20;99.90;;;;;;5088300;28;20067;-73
2022/04/21 01:25:18;;;;;;;14.10;7.65;;;6.30;99.90;;;;;;5090195;28;20059;-73
2022/04/21 01:27:45;;;;;;;14.32;7.88;;;6.20;99.90;;;;;;5086440;28;20470;-73
2022/04/21 01:30:12;;;;;;;13.70;7.60;;;6.20;99.90;;;;;;5089387;28;20133;-75
2022/04/21 01:32:42;;;;;;;13.57;7.90;;;6.20;99.90;;;;;;5090049;28;20046;-73
2022/04/21 01:35:08;;;;;;;13.48;8.07;;;6.10;99.90;;;;;;5088668;28;20040;-75
2022/04/21 01:43:04;;;;;;;13.63;7.63;;;6.00;99.90;;;;;;5087668;28;20406;-74
2022/04/21 01:45:30;;;;;;;13.60;8.23;;;6.00;99.90;;;;;;5088759;28;20040;-74
2022/04/21 01:47:56;;;;;;;14.55;7.80;;;6.00;99.90;;;;;;5089864;28;20048;-73
2022/04/21 01:50:23;;;;;;;13.98;7.72;;;6.00;99.90;;;;;;5086953;28;20051;-74
2022/04/21 01:52:48;;;;;;;13.98;7.65;;;5.90;99.90;;;;;;5086164;28;20082;-75
2022/04/21 01:55:14;;;;;;;13.95;7.88;;;5.90;99.90;;;;;;5086768;28;20458;-74
2022/04/21 01:57:39;;;;;;;16.00;8.05;;;5.90;99.90;;;;;;5098393;28;20138;-74
2022/04/21 02:00:06;;;;;;;14.45;8.90;;;5.90;99.90;;;;;;5086060;28;20051;-74
2022/04/21 02:02:32;;;;;;;14.85;8.23;;;5.90;99.90;;;;;;5086452;28;20040;-74
2022/04/21 02:04:59;;;;;;;13.65;8.25;;;5.90;99.90;;;;;;5085690;28;20432;-74
2022/04/21 02:07:25;;;;;;;14.60;8.30;;;5.90;99.90;;;;;;5067900;28;20334;-74
2022/04/21 02:09:51;;;;;;;14.95;8.23;;;5.90;99.90;;;;;;5085400;28;20078;-74
2022/04/21 02:12:17;;;;;;;17.38;8.90;;;5.90;99.90;;;;;;5087025;28;20455;-74
2022/04/21 02:14:43;;;;;;;14.45;7.90;;;5.80;99.90;;;;;;5084184;28;20066;-73
2022/04/21 02:17:08;;;;;;;14.20;7.88;;;5.80;99.90;;;;;;5082562;28;20093;-74
2022/04/21 02:19:34;;;;;;;11.73;7.50;;;5.80;99.90;;;;;;5070161;28;20041;-73
2022/04/21 02:21:59;;;;;;;12.65;7.63;;;5.70;99.90;;;;;;5085283;28;20044;-73
2022/04/21 02:24:25;;;;;;;11.10;7.32;;;5.60;99.90;;;;;;5086372;28;20036;-73
2022/04/21 02:26:51;;;;;;;17.35;7.88;;;5.40;99.90;;;;;;5086024;28;20050;-73
2022/04/21 02:29:16;;;;;;;12.55;7.72;;;5.30;99.90;;;;;;5084239;28;20537;-72
2022/04/21 02:31:42;;;;;;;15.75;7.45;;;5.20;99.90;;;;;;5085175;28;20040;-72
2022/04/21 02:34:07;;;;;;;15.70;7.70;;;5.20;99.90;;;;;;5085476;28;20040;-72
2022/04/21 02:36:33;;;;;;;14.43;7.55;;;5.10;99.90;;;;;;5086440;28;20032;-73
2022/04/21 02:38:58;;;;;;;17.90;8.45;;;5.10;99.90;;;;;;5084754;28;20394;-72
2022/04/21 02:41:24;;;;;;;15.93;9.05;;;5.20;99.90;;;;;;5084549;28;20119;-75
2022/04/21 02:43:49;;;;;;;17.52;8.95;;;5.30;99.90;;;;;;5067867;28;20105;-74
2022/04/21 02:46:16;;;;;;;18.13;9.05;;;5.30;99.90;;;;;;5084555;28;20036;-75
2022/04/21 02:48:41;;;;;;;15.20;8.23;;;5.30;99.90;;;;;;5082384;28;20470;-73
2022/04/21 02:51:09;;;;;;;14.63;8.35;;;5.20;99.90;;;;;;5087633;28;20207;-73
2022/04/21 02:59:02;;;;;;;16.67;9.30;;;5.20;99.90;;;;;;5089830;28;20445;-75
2022/04/21 03:01:28;;;;;;;18.92;9.23;;;5.20;99.90;;;;;;5087407;28;20028;-74
2022/04/21 03:03:54;;;;;;;16.35;9.23;;;5.10;99.90;;;;;;5068838;28;20040;-74
2022/04/21 03:06:20;;;;;;;16.77;9.32;;;5.10;99.90;;;;;;5084540;28;20055;-74
2022/04/21 03:08:46;;;;;;;15.90;9.07;;;5.10;99.90;;;;;;5089170;28;20047;-74
2022/04/21 03:11:11;;;;;;;17.08;9.75;;;5.00;99.90;;;;;;5087687;28;20071;-72
2022/04/21 03:13:37;;;;;;;16.25;9.48;;;5.00;99.90;;;;;;5087056;28;20036;-75
2022/04/21 03:16:02;;;;;;;18.02;9.85;;;5.00;99.90;;;;;;5089394;28;20126;-73
2022/04/21 03:18:28;;;;;;;19.92;10.57;;;5.00;99.90;;;;;;5088173;28;20035;-74
2022/04/21 03:26:22;;;;;;;19.85;10.38;;;4.90;99.90;;;;;;5084315;28;20055;-72
2022/04/21 03:28:47;;;;;;;17.65;10.40;;;5.00;99.90;;;;;;5088732;28;20032;-74
2022/04/21 03:31:13;;;;;;;17.27;9.90;;;4.90;99.90;;;;;;5085510;28;20048;-74
2022/04/21 03:33:38;;;;;;;17.63;10.13;;;4.90;99.90;;;;;;5073190;28;20040;-73
2022/04/21 03:36:04;;;;;;;18.05;10.60;;;4.90;99.90;;;;;;5091868;28;20052;-74
2022/04/21 03:38:30;;;;;;;23.45;11.30;;;4.90;99.90;;;;;;5089659;28;20487;-74
2022/04/21 03:40:58;;;;;;;20.30;10.70;;;4.90;99.90;;;;;;5085072;28;20043;-74
2022/04/21 03:43:24;;;;;;;18.58;11.30;;;4.90;99.90;;;;;;5085174;28;20027;-74
2022/04/21 03:45:49;;;;;;;18.95;10.93;;;4.80;99.90;;;;;;5072024;28;20044;-75
2022/04/21 03:48:16;;;;;;;20.85;11.00;;;4.80;99.90;;;;;;5081651;28;20040;-75
2022/04/21 03:50:41;;;;;;;20.52;11.50;;;4.80;99.90;;;;;;5083646;28;20028;-73
2022/04/21 03:53:07;;;;;;;17.77;10.93;;;4.70;99.90;;;;;;5086309;28;20082;-73
2022/04/21 03:55:32;;;;;;;22.35;12.05;;;4.80;99.90;;;;;;5075653;28;20032;-74
2022/04/21 03:57:58;;;;;;;23.15;11.70;;;4.70;99.90;;;;;;5086911;28;20067;-74
2022/04/21 04:00:23;;;;;;;19.08;11.60;;;4.70;99.90;;;;;;5066977;28;20032;-75
2022/04/21 04:02:49;;;;;;;21.10;11.70;;;4.70;99.90;;;;;;5081868;28;20098;-73
2022/04/21 04:05:15;;;;;;;22.13;12.30;;;4.70;99.90;;;;;;5088573;28;20085;-74
2022/04/21 04:13:09;;;;;;;22.00;12.00;;;4.70;99.90;;;;;;5085249;28;20065;-73
2022/04/21 04:15:34;;;;;;;21.40;12.10;;;4.70;99.90;;;;;;5084507;28;20126;-73
2022/04/21 04:18:00;;;;;;;21.90;12.38;;;4.70;99.90;;;;;;5070856;28;20865;-73
2022/04/21 04:20:25;;;;;;;17.65;11.57;;;4.70;99.90;;;;;;5084006;28;20349;-74
2022/04/21 04:22:51;;;;;;;22.23;11.82;;;4.70;99.90;;;;;;5087551;28;20122;-73
2022/04/21 04:25:17;;;;;;;22.08;11.98;;;4.70;99.90;;;;;;5087765;28;20032;-74
2022/04/21 04:27:43;;;;;;;19.60;12.38;;;4.70;99.90;;;;;;5087448;28;20035;-74
2022/04/21 04:30:09;;;;;;;23.52;13.15;;;4.70;99.90;;;;;;5087956;28;20054;-74
2022/04/21 04:32:35;;;;;;;20.23;11.98;;;4.70;99.90;;;;;;5087424;28;20124;-73
2022/04/21 04:35:01;;;;;;;23.23;12.27;;;4.70;99.90;;;;;;5088821;28;20538;-73
2022/04/21 04:37:26;;;;;;;24.23;12.43;;;4.70;99.90;;;;;;5086698;28;20059;-74
2022/04/21 04:39:53;;;;;;;19.20;11.82;;;4.70;99.90;;;;;;5087735;28;20059;-74
2022/04/21 04:42:21;;;;;;;20.30;11.32;;;4.70;99.90;;;;;;5086597;28;20072;-73
2022/04/21 04:44:49;;;;;;;21.52;11.82;;;4.70;99.90;;;;;;5085817;28;20040;-73
2022/04/21 04:47:15;;;;;;;21.10;12.05;;;4.80;99.90;;;;;;5088823;28;20482;-74
2022/04/21 04:49:41;;;;;;;22.23;12.15;;;4.80;99.90;;;;;;5088079;28;20357;-74
2022/04/21 04:52:07;;;;;;;20.45;11.90;;;4.90;99.90;;;;;;5086855;28;20097;-74
2022/04/21 04:54:32;;;;;;;20.33;11.23;;;4.90;99.90;;;;;;5085055;28;20047;-73
2022/04/21 04:56:58;;;;;;;23.75;12.23;;;5.00;99.90;;;;;;5085954;28;20040;-73
2022/04/21 04:59:24;;;;;;;22.48;12.50;;;5.00;99.90;;;;;;5087251;28;20029;-74
2022/04/21 05:01:50;;;;;;;21.38;12.40;;;5.10;99.90;;;;;;5086831;28;20402;-74
2022/04/21 05:04:17;;;;;;;22.70;12.50;;;5.10;99.90;;;;;;5070471;28;20032;-72
2022/04/21 05:06:48;;;;;;;26.63;12.95;;;5.20;99.90;;;;;;5086505;28;20543;-74
2022/04/21 05:09:15;;;;;;;21.60;12.90;;;5.20;99.90;;;;;;5086516;28;20043;-72
2022/04/21 05:11:43;;;;;;;24.73;12.93;;;5.20;99.90;;;;;;5085179;28;20040;-73
2022/04/21 05:14:09;;;;;;;25.30;13.40;;;5.30;99.90;;;;;;5085001;28;20112;-75
2022/04/21 05:16:36;;;;;;;23.67;13.70;;;5.30;99.90;;;;;;5087811;28;20032;-73
2022/04/21 05:19:07;;;;;;;25.80;14.13;;;5.40;99.90;;;;;;5085823;28;21180;-73
2022/04/21 05:21:34;;;;;;;24.42;13.73;;;5.50;99.90;;;;;;5068834;28;20028;-71
2022/04/21 05:24:00;;;;;;;24.75;13.52;;;5.60;99.90;;;;;;5084970;28;20094;-73
2022/04/21 05:26:27;;;;;;;27.08;14.40;;;5.70;99.90;;;;;;5087317;28;20048;-72
2022/04/21 05:28:54;;;;;;;25.50;13.80;;;5.80;99.90;;;;;;5090304;28;20040;-72
2022/04/21 05:31:20;;;;;;;25.38;14.02;;;5.90;99.90;;;;;;5092010;28;20047;-72
2022/04/21 05:33:46;;;;;;;26.83;14.75;;;5.90;99.90;;;;;;5074195;28;20394;-73
2022/04/21 05:36:12;;;;;;;28.88;14.57;;;6.00;99.90;;;;;;5089854;28;20071;-72
2022/04/21 05:38:38;;;;;;;23.83;14.32;;;6.10;99.90;;;;;;5089698;28;20107;-73
2022/04/21 05:41:04;;;;;;;27.65;14.35;;;6.20;99.90;;;;;;5090041;28;20043;-71
2022/04/21 05:43:41;;;;;;;26.02;14.10;;;6.20;99.90;;;;;;5089965;28;20043;-73
2022/04/21 05:46:08;;;;;;;29.08;14.70;;;6.40;99.90;;;;;;5088364;28;20502;-72
2022/04/21 05:48:35;;;;;;;26.90;13.68;;;6.40;99.90;;;;;;5084961;28;20371;-74
2022/04/21 05:51:01;;;;;;;26.05;14.13;;;6.50;99.90;;;;;;5088957;28;20073;-73
2022/04/21 05:53:27;;;;;;;25.50;14.38;;;6.70;99.90;;;;;;5090754;28;20040;-72
2022/04/21 05:55:54;;;;;;;25.42;14.00;;;6.70;99.90;;;;;;5089076;28;20044;-71
2022/04/21 05:58:20;;;;;;;26.35;14.27;;;6.80;99.90;;;;;;5089319;28;20032;-75
2022/04/21 06:00:46;;;;;;;25.13;14.07;;;6.90;99.90;;;;;;5090769;28;20043;-73
2022/04/21 06:03:12;;;;;;;28.23;14.93;;;7.00;99.90;;;;;;5091331;28;20044;-72
2022/04/21 06:05:39;;;;;;;27.52;14.35;;;7.10;99.90;;;;;;5090690;28;20097;-74
2022/04/21 06:08:06;;;;;;;25.13;13.88;;;7.20;99.90;;;;;;5091223;28;20123;-73
2022/04/21 06:10:32;;;;;;;30.50;15.23;;;7.30;99.90;;;;;;5086704;28;20530;-73
2022/04/21 06:12:58;;;;;;;25.90;14.48;;;7.40;99.90;;;;;;5085380;28;20052;-73
2022/04/21 06:15:23;;;;;;;23.20;13.95;;;7.50;99.90;;;;;;5081953;28;20501;-75
2022/04/21 06:17:49;;;;;;;26.90;14.07;;;7.60;99.90;;;;;;5085932;28;20040;-73
2022/04/21 06:20:14;;;;;;;26.85;14.65;;;7.70;99.90;;;;;;5088530;28;20047;-72
2022/04/21 06:22:40;;;;;;;27.35;14.38;;;7.80;99.90;;;;;;5087665;28;20036;-73
2022/04/21 06:25:06;;;;;;;23.10;13.82;;;7.90;99.90;;;;;;5084953;28;20733;-75
2022/04/21 06:27:31;;;;;;;24.75;13.93;;;8.00;99.90;;;;;;5087935;28;20393;-73
2022/04/21 06:29:59;;;;;;;23.50;13.05;;;8.10;99.90;;;;;;5087141;28;20108;-74
2022/04/21 06:32:25;;;;;;;23.90;12.98;;;8.20;99.90;;;;;;5090437;28;20062;-73
2022/04/21 06:34:51;;;;;;;23.92;13.25;;;8.30;99.90;;;;;;5089793;28;20036;-71
2022/04/21 06:37:16;;;;;;;20.73;12.05;;;8.40;99.90;;;;;;5089917;28;20032;-71
2022/04/21 06:39:42;;;;;;;23.85;11.93;;;8.50;99.90;;;;;;5089291;28;20064;-72
2022/04/21 06:42:07;;;;;;;25.00;12.68;;;8.60;99.90;;;;;;5072491;28;20032;-74
2022/04/21 06:50:01;;;;;;;20.55;11.25;;;8.90;99.90;;;;;;5089394;28;20096;-75
2022/04/21 06:52:27;;;;;;;21.83;11.52;;;9.00;99.90;;;;;;5089916;28;20047;-72
2022/04/21 06:54:53;;;;;;;18.38;10.95;;;9.10;99.90;;;;;;5086655;28;20044;-71
2022/04/21 06:57:19;;;;;;;17.52;9.73;;;9.20;99.90;;;;;;5088427;28;20042;-73
2022/04/21 06:59:45;;;;;;;20.95;11.32;;;9.30;99.90;;;;;;5088232;28;20115;-73
2022/04/21 07:02:12;;;;;;;17.75;10.55;;;9.40;99.90;;;;;;5086053;28;20465;-76
2022/04/21 07:04:38;;;;;;;19.33;9.30;;;9.60;99.90;;;;;;5086666;28;20035;-71
2022/04/21 07:07:03;;;;;;;18.42;9.77;;;9.70;99.90;;;;;;5088919;28;20131;-72
2022/04/21 07:09:29;;;;;;;18.02;8.80;;;9.80;99.90;;;;;;5087939;28;20059;-74
2022/04/21 07:11:54;;;;;;;13.45;8.32;;;10.00;99.90;;;;;;5071575;28;20044;-72
2022/04/21 07:14:20;;;;;;;18.13;8.68;;;10.00;99.90;;;;;;5088727;28;20043;-71
2022/04/21 07:16:45;;;;;;;19.67;8.25;;;10.00;99.90;;;;;;5086377;28;20406;-76
2022/04/21 07:19:11;;;;;;;16.23;8.93;;;10.10;99.90;;;;;;5086252;28;20043;-72
2022/04/21 07:21:36;;;;;;;14.57;8.20;;;10.20;99.90;;;;;;5089206;28;20028;-72
2022/04/21 07:24:02;;;;;;;15.00;8.43;;;10.20;99.90;;;;;;5087954;28;20074;-71
2022/04/21 07:26:28;;;;;;;14.85;8.38;;;10.30;99.90;;;;;;5087449;28;20456;-70
2022/04/21 07:28:54;;;;;;;27.35;9.57;;;10.40;99.90;;;;;;5088029;28;20048;-75
2022/04/21 07:31:19;;;;;;;14.45;8.00;;;10.50;99.90;;;;;;5085877;28;20105;-71
2022/04/21 07:33:45;;;;;;;15.20;7.47;;;10.60;99.90;;;;;;5087804;28;20044;-74
2022/04/21 07:36:10;;;;;;;15.13;8.10;;;10.60;99.90;;;;;;5088028;28;20070;-75
2022/04/21 07:38:36;;;;;;;13.43;6.63;;;10.70;99.90;;;;;;5089139;28;20132;-71
2022/04/21 07:41:02;;;;;;;14.38;7.80;;;10.80;99.90;;;;;;5070501;28;20178;-74
2022/04/21 07:43:28;;;;;;;17.27;7.85;;;10.90;99.90;;;;;;5087783;28;20028;-73
2022/04/21 07:45:54;;;;;;;13.35;7.70;;;11.00;99.90;;;;;;5088970;28;20040;-76
2022/04/21 07:48:20;;;;;;;13.05;7.03;;;11.10;99.90;;;;;;5086106;28;20032;-74
2022/04/21 07:50:45;;;;;;;11.63;6.65;;;11.20;99.90;;;;;;5081252;28;20051;-74
2022/04/21 07:53:14;;;;;;;15.35;6.53;;;11.30;99.90;;;;;;5086290;28;20031;-72
2022/04/21 07:55:40;;;;;;;10.90;6.82;;;11.40;99.90;;;;;;5086690;28;20619;-72
2022/04/21 07:58:06;;;;;;;11.20;6.53;;;11.50;99.90;;;;;;5070196;28;20500;-76
2022/04/21 08:00:36;;;;;;;10.93;5.90;;;11.60;99.90;;;;;;5087176;28;20068;-75
2022/04/21 08:03:03;;;;;;;11.07;5.60;;;11.70;99.90;;;;;;5086953;28;20032;-71
2022/04/21 08:05:29;;;;;;;7.63;5.22;;;11.70;99.90;;;;;;5072096;28;20024;-74
2022/04/21 08:07:55;;;;;;;8.73;5.68;;;11.80;99.90;;;;;;5076822;28;20478;-72
2022/04/21 08:10:22;;;;;;;12.05;6.25;;;11.90;99.90;;;;;;5084198;28;20527;-75
2022/04/21 08:12:49;;;;;;;9.98;6.32;;;12.00;99.90;;;;;;5088008;28;20081;-75
2022/04/21 08:15:23;;;;;;;9.70;5.53;;;12.20;99.90;;;;;;5087751;28;20040;-75
2022/04/21 08:17:50;;;;;;;9.35;5.13;;;12.30;99.90;;;;;;5087747;28;20107;-77
2022/04/21 08:20:16;;;;;;;8.77;5.15;;;12.40;99.90;;;;;;5086709;28;20092;-77
2022/04/21 08:22:41;;;;;;;7.75;4.97;;;12.50;99.90;;;;;;5086885;28;20032;-78
2022/04/21 08:33:21;;;;;;;10.57;5.70;;;12.90;99.90;;;;;;5086383;28;20050;-77
2022/04/21 08:35:49;;;;;;;8.13;5.57;;;12.90;99.90;;;;;;5088846;28;20040;-72
2022/04/21 08:38:15;;;;;;;7.97;5.47;;;12.90;99.90;;;;;;5088602;28;20050;-75
2022/04/21 08:40:53;;;;;;;11.45;5.38;;;13.00;99.90;;;;;;5088314;28;20035;-76
2022/04/21 08:43:19;;;;;;;8.82;5.47;;;13.00;99.90;;;;;;5088900;28;20114;-72
2022/04/21 08:45:46;;;;;;;8.20;5.13;;;13.10;99.90;;;;;;5088718;28;20083;-72
2022/04/21 08:48:14;;;;;;;8.98;5.25;;;13.30;99.90;;;;;;5087811;28;20093;-76
2022/04/21 08:50:40;;;;;;;8.63;5.30;;;13.40;99.90;;;;;;5088140;28;20039;-76
2022/04/21 08:53:07;;;;;;;10.85;5.60;;;13.50;99.90;;;;;;5085509;28;20109;-76
2022/04/21 08:55:33;;;;;;;11.40;5.40;;;13.50;99.90;;;;;;5084663;28;20039;-76
2022/04/21 08:57:59;;;;;;;9.02;5.38;;;13.50;99.90;;;;;;5088387;28;20135;-75
2022/04/21 09:00:25;;;;;;;12.15;5.18;;;13.60;99.90;;;;;;5090415;28;20039;-73
2022/04/21 09:02:51;;;;;;;10.13;5.60;;;13.60;99.90;;;;;;5075158;28;20115;-78
2022/04/21 09:05:17;;;;;;;10.32;5.32;;;13.60;99.90;;;;;;5092676;28;20036;-74
2022/04/21 09:07:50;;;;;;;8.88;5.30;;;13.70;99.90;;;;;;5087233;28;20509;-77
2022/04/21 09:10:17;;;;;;;9.90;5.10;;;13.80;99.90;;;;;;5089982;28;20040;-77
2022/04/21 09:12:52;;;;;;;9.40;6.13;;;13.90;99.90;;;;;;5092767;28;20048;-77
2022/04/21 09:15:20;;;;;;;8.43;5.13;;;14.00;99.90;;;;;;5092618;28;20044;-76
2022/04/21 09:17:53;;;;;;;10.15;5.57;;;14.10;99.90;;;;;;5083535;28;20036;-70
2022/04/21 09:20:21;;;;;;;8.85;5.07;;;14.10;99.90;;;;;;5083569;28;20032;-73
2022/04/21 09:22:52;;;;;;;10.48;5.32;;;14.20;99.90;;;;;;5076672;28;20127;-76
2022/04/21 09:25:25;;;;;;;8.27;5.18;;;14.30;99.90;;;;;;5093766;28;20044;-76
2022/04/21 09:27:52;;;;;;;7.22;4.78;;;14.40;99.90;;;;;;5095057;28;20051;-77
2022/04/21 09:30:18;;;;;;;8.90;5.05;;;14.40;99.90;;;;;;5113076;28;20069;-80
2022/04/21 09:32:59;;;;;;;8.98;5.03;;;14.40;99.90;;;;;;5113706;28;20052;-71
2022/04/21 09:35:27;;;;;;;8.30;4.80;;;14.50;99.90;;;;;;5103572;28;20059;-76
2022/04/21 09:37:55;;;;;;;9.98;4.88;;;14.50;99.90;;;;;;5093147;28;20418;-77
2022/04/21 09:40:28;;;;;;;10.45;4.80;;;14.60;99.90;;;;;;5079998;28;20044;-74
2022/04/21 09:43:01;;;;;;;7.85;4.60;;;14.70;99.90;;;;;;5084958;28;20071;-73
2022/04/21 09:48:18;;;;;;;7.45;5.05;;;14.80;99.90;;;;;;5091756;28;20413;-79
2022/04/21 09:50:49;;;;;;;11.13;4.82;;;14.70;99.90;;;;;;5090654;28;20039;-75
2022/04/21 09:53:17;;;;;;;9.57;4.82;;;14.80;99.90;;;;;;5088929;28;20454;-78
2022/04/21 09:55:44;;;;;;;8.05;4.70;;;14.80;98.70;;;;;;5091102;28;20035;-77
2022/04/21 09:58:10;;;;;;;6.78;4.43;;;14.80;99.80;;;;;;5088301;28;20040;-73
2022/04/21 10:00:38;;;;;;;11.43;4.35;;;14.90;99.30;;;;;;5084473;28;20040;-75
2022/04/21 10:03:05;;;;;;;6.53;4.30;;;15.00;99.90;;;;;;5091009;28;20135;-72
2022/04/21 10:05:33;;;;;;;6.78;4.45;;;15.10;99.10;;;;;;5090985;28;20027;-73
2022/04/21 10:08:06;;;;;;;8.75;4.68;;;15.20;99.90;;;;;;5073788;28;20478;-79
2022/04/21 10:10:33;;;;;;;6.88;4.65;;;15.20;96.50;;;;;;5090676;28;20075;-77
2022/04/21 10:13:00;;;;;;;6.38;4.32;;;15.30;99.90;;;;;;5070444;28;20384;-73
2022/04/21 10:15:27;;;;;;;10.15;4.60;;;15.30;96.50;;;;;;5085613;28;20440;-76
2022/04/21 10:17:53;;;;;;;8.00;4.00;;;15.40;96.50;;;;;;5091339;28;20482;-77
2022/04/21 10:20:23;;;;;;;5.75;4.10;;;15.60;99.30;;;;;;5090788;28;20044;-77
2022/04/21 10:22:54;;;;;;;7.20;4.22;;;15.60;96.80;;;;;;5091366;28;20083;-78
2022/04/21 10:25:33;;;;;;;17.10;4.65;;;15.60;96.00;;;;;;5088937;28;20096;-76
2022/04/21 10:27:59;;;;;;;9.52;3.97;;;15.70;82.60;;;;;;5081548;28;20052;-79
2022/04/21 10:30:31;;;;;;;6.45;3.85;;;15.70;88.90;;;;;;5086370;28;20051;-79
2022/04/21 10:32:58;;;;;;;7.65;4.03;;;15.60;85.50;;;;;;5091995;28;20471;-76
2022/04/21 10:35:23;;;;;;;9.20;4.57;;;15.60;92.10;;;;;;5091499;28;20036;-76
2022/04/21 10:38:12;;;;;;;9.18;3.97;;;15.70;97.30;;;;;;5091562;28;20048;-75
2022/04/21 10:41:10;;;;;;;8.73;4.65;;;15.80;83.00;;;;;;5084188;28;20044;-78
2022/04/21 10:43:48;;;;;;;7.55;4.55;;;15.80;94.20;;;;;;5091403;28;20483;-78
2022/04/21 10:46:22;;;;;;;10.95;4.30;;;15.80;96.60;;;;;;5088783;28;20123;-77
2022/04/21 10:48:48;;;;;;;8.65;4.50;;;15.90;94.00;;;;;;5090355;28;20086;-74
2022/04/21 10:51:41;;;;;;;6.43;4.20;;;16.00;90.20;;;;;;5091355;28;20048;-78
2022/04/21 10:59:57;;;;;;;7.78;4.18;;;16.10;81.50;;;;;;5091064;28;20047;-80
2022/04/21 11:02:41;;;;;;;8.88;4.72;;;16.10;78.40;;;;;;5091184;28;20040;-78
2022/04/21 11:05:22;;;;;;;9.85;4.85;;;16.20;85.50;;;;;;5092540;28;20047;-81
2022/04/21 11:07:55;;;;;;;8.77;4.55;;;16.30;95.20;;;;;;5090617;28;20122;-75
2022/04/21 11:10:28;;;;;;;7.80;4.47;;;16.40;91.60;;;;;;5090656;28;20104;-76
2022/04/21 11:12:54;;;;;;;8.48;4.50;;;16.50;83.10;;;;;;5092421;28;20054;-79
2022/04/21 11:15:53;;;;;;;7.30;4.40;;;16.40;88.50;;;;;;5074748;28;20048;-78
2022/04/21 11:18:20;;;;;;;9.45;4.32;;;16.40;79.00;;;;;;5071699;28;20058;-76
2022/04/21 11:20:50;;;;;;;6.57;3.97;;;16.40;87.10;;;;;;5070781;28;20036;-72
2022/04/21 11:23:29;;;;;;;7.30;3.90;;;16.50;90.30;;;;;;5069657;28;20445;-78
2022/04/21 11:26:06;;;;;;;6.75;3.78;;;16.50;78.60;;;;;;5081118;28;20043;-76
2022/04/21 11:28:32;;;;;;;7.45;4.15;;;16.40;72.20;;;;;;5089167;28;20036;-73
2022/04/21 11:31:00;;;;;;;6.82;4.22;;;16.50;74.20;;;;;;5090024;28;20043;-73
2022/04/21 11:33:26;;;;;;;7.88;4.05;;;16.50;76.50;;;;;;5081221;28;20040;-78
2022/04/21 11:36:02;;;;;;;7.57;3.90;;;16.50;67.90;;;;;;5081464;28;20032;-80
2022/04/21 11:38:28;;;;;;;7.55;4.10;;;16.60;82.50;;;;;;5090642;28;20044;-74
2022/04/21 11:40:54;;;;;;;7.97;4.25;;;16.60;79.20;;;;;;5074260;28;20128;-78
2022/04/21 11:43:19;;;;;;;6.97;4.40;;;16.70;78.40;;;;;;5070210;28;20101;-78
2022/04/21 11:46:14;;;;;;;7.90;4.63;;;16.80;91.70;;;;;;5078801;28;20039;-74
2022/04/21 11:48:41;;;;;;;6.72;4.07;;;16.90;74.10;;;;;;5081937;28;20059;-73
2022/04/21 11:51:08;;;;;;;7.72;4.18;;;17.00;77.30;;;;;;5081904;28;20043;-78
2022/04/21 11:53:36;;;;;;;7.38;4.30;;;17.00;73.40;;;;;;5069362;28;20036;-71
2022/04/21 11:56:05;;;;;;;7.05;4.68;;;17.00;84.90;;;;;;5070009;28;20083;-77
2022/04/21 11:58:34;;;;;;;10.52;4.78;;;17.00;85.30;;;;;;5070562;28;20075;-81
2022/04/21 12:06:55;;;;;;;8.23;4.70;;;17.00;83.50;;;;;;5077015;28;20137;-80
2022/04/21 12:09:41;;;;;;;7.30;4.47;;;16.90;74.20;;;;;;5069938;28;20063;-77
2022/04/21 12:12:08;;;;;;;6.43;4.88;;;16.90;82.20;;;;;;5070186;28;20450;-77
2022/04/21 12:14:36;;;;;;;9.00;5.22;;;16.80;67.70;;;;;;5069889;28;20101;-74
2022/04/21 12:17:04;;;;;;;8.73;5.32;;;16.70;78.70;;;;;;5070245;28;20127;-75
2022/04/21 12:19:39;;;;;;;6.55;4.80;;;16.70;91.20;;;;;;5077977;28;20111;-72
2022/04/21 12:22:18;;;;;;;6.43;4.28;;;16.80;82.70;;;;;;5071237;28;20036;-73
2022/04/21 12:24:51;;;;;;;7.18;4.22;;;16.80;74.40;;;;;;5089577;28;20036;-79
2022/04/21 12:27:35;;;;;;;9.07;4.28;;;16.80;87.10;;;;;;5089937;28;20405;-74
2022/04/21 12:30:11;;;;;;;7.40;5.05;;;16.80;79.90;;;;;;5070099;28;20040;-78
2022/04/21 12:32:39;;;;;;;8.70;5.30;;;16.90;74.50;;;;;;5089090;28;20052;-72
2022/04/21 12:35:09;;;;;;;11.10;5.40;;;17.00;87.40;;;;;;5089046;28;20040;-77
2022/04/21 12:37:36;;;;;;;8.77;4.82;;;17.00;72.00;;;;;;5079319;28;20159;-74
2022/04/21 12:40:07;;;;;;;7.00;4.20;;;17.00;70.00;;;;;;5088824;28;20101;-76
2022/04/21 12:42:33;;;;;;;7.85;4.75;;;16.90;71.50;;;;;;5090597;28;20046;-76
2022/04/21 12:44:59;;;;;;;9.43;5.30;;;16.80;71.50;;;;;;5090091;28;20032;-78
2022/04/21 12:47:25;;;;;;;8.98;5.03;;;16.70;72.20;;;;;;5082902;28;20989;-75
2022/04/21 12:49:55;;;;;;;8.20;4.68;;;16.70;75.40;;;;;;5069052;28;20072;-78
2022/04/21 12:52:27;;;;;;;9.13;5.10;;;16.70;75.60;;;;;;5085872;28;20171;-77
2022/04/21 12:54:52;;;;;;;10.80;5.95;;;16.70;91.40;;;;;;5068622;28;20060;-80
2022/04/21 12:57:18;;;;;;;9.90;5.60;;;16.70;82.60;;;;;;5068708;28;20131;-77
2022/04/21 12:59:44;;;;;;;8.68;5.47;;;16.60;84.80;;;;;;5068853;28;20396;-78
2022/04/21 13:02:10;;;;;;;13.13;5.80;;;16.50;83.00;;;;;;5068063;28;20047;-73
2022/04/21 13:04:36;;;;;;;8.25;5.45;;;16.40;78.80;;;;;;5075142;28;20039;-76
2022/04/21 13:07:03;;;;;;;8.63;5.30;;;16.40;83.00;;;;;;5080771;28;20128;-75
2022/04/21 13:09:29;;;;;;;10.57;5.97;;;16.40;90.30;;;;;;5087884;28;20089;-78
2022/04/21 13:11:54;;;;;;;11.73;6.15;;;16.50;91.50;;;;;;5088475;28;20044;-81
2022/04/21 13:14:20;;;;;;;10.00;5.47;;;16.70;93.60;;;;;;5073934;28;20066;-77
2022/04/21 13:16:45;;;;;;;9.88;5.72;;;17.00;93.80;;;;;;5106438;28;20055;-76
2022/04/21 13:19:11;;;;;;;11.18;6.25;;;17.10;95.40;;;;;;5088461;28;20036;-79
2022/04/21 13:24:21;;;;;;;9.98;5.50;;;17.30;89.80;;;;;;5089428;28;20043;-79
2022/04/21 13:26:46;;;;;;;6.93;5.60;;;17.20;77.00;;;;;;5092060;28;20093;-79
2022/04/21 13:29:12;;;;;;;9.75;5.50;;;17.00;70.90;;;;;;5089272;28;20036;-77
2022/04/21 13:34:21;;;;;;;8.25;6.00;;;17.20;90.20;;;;;;5089286;28;20086;-76
2022/04/21 13:36:47;;;;;;;12.15;6.60;;;17.30;90.00;;;;;;5089285;28;20467;-78
2022/04/21 13:39:13;;;;;;;10.52;6.80;;;17.30;87.00;;;;;;5085992;28;20118;-75
2022/04/21 13:41:39;;;;;;;9.90;6.20;;;17.30;89.90;;;;;;5073512;28;20398;-76
2022/04/21 13:44:04;;;;;;;12.32;6.05;;;17.30;86.30;;;;;;5088509;28;20036;-77